createdAt,value
2023-05-05T00:01:12.092Z,16.79
2023-05-05T00:03:38.753Z,16.81
2023-05-05T00:06:07.554Z,16.86
2023-05-05T00:08:34.177Z,16.86
2023-05-05T00:11:00.807Z,16.91
2023-05-05T00:13:27.452Z,17.00
2023-05-05T00:15:54.281Z,17.05
2023-05-05T00:18:21.213Z,17.13
2023-05-05T00:20:48.432Z,17.05
2023-05-05T00:23:17.368Z,16.99
2023-05-05T00:25:44.126Z,17.05
2023-05-05T00:28:10.768Z,17.00
2023-05-05T00:30:39.148Z,16.97
2023-05-05T00:33:06.193Z,16.82
2023-05-05T00:35:32.953Z,16.81
2023-05-05T00:37:59.724Z,16.89
2023-05-05T00:40:27.633Z,16.80
2023-05-05T00:42:54.310Z,16.79
2023-05-05T00:45:21.028Z,16.89
2023-05-05T00:47:49.322Z,16.98
2023-05-05T00:50:22.128Z,17.02
2023-05-05T00:52:49.390Z,17.05
2023-05-05T00:55:16.327Z,17.09
2023-05-05T00:57:44.880Z,17.12
2023-05-05T01:00:12.382Z,17.19
2023-05-05T01:02:39.894Z,17.20
2023-05-05T01:05:07.814Z,17.24
2023-05-05T01:07:44.578Z,17.22
2023-05-05T01:10:20.630Z,17.33
2023-05-05T01:12:58.122Z,17.32
2023-05-05T01:15:32.159Z,17.33
2023-05-05T01:18:06.858Z,17.33
2023-05-05T01:20:40.316Z,17.30
2023-05-05T01:23:08.268Z,17.33
2023-05-05T01:25:52.366Z,17.30
2023-05-05T01:28:31.090Z,17.23
2023-05-05T01:31:16.315Z,17.18
2023-05-05T01:33:49.024Z,17.19
2023-05-05T01:36:22.880Z,17.17
2023-05-05T01:38:53.593Z,17.13
2023-05-05T01:41:25.501Z,17.07
2023-05-05T01:43:56.181Z,17.06
2023-05-05T01:46:24.504Z,16.98
2023-05-05T01:48:55.899Z,16.94
2023-05-05T01:51:24.509Z,16.91
2023-05-05T01:53:54.645Z,16.92
2023-05-05T01:56:23.743Z,16.82
2023-05-05T01:58:51.500Z,16.83
2023-05-05T02:01:21.043Z,16.82
2023-05-05T02:03:50.651Z,16.75
2023-05-05T02:06:20.627Z,16.69
2023-05-05T02:08:48.792Z,16.66
2023-05-05T02:11:16.404Z,16.61
2023-05-05T02:13:44.120Z,16.53
2023-05-05T02:16:15.938Z,16.50
2023-05-05T02:18:44.891Z,16.36
2023-05-05T02:21:11.600Z,16.26
2023-05-05T02:23:39.722Z,16.28
2023-05-05T02:26:09.394Z,16.21
2023-05-05T02:28:42.818Z,16.19
2023-05-05T02:31:12.095Z,16.12
2023-05-05T02:33:41.631Z,16.09
2023-05-05T02:36:14.596Z,16.08
2023-05-05T02:38:56.133Z,16.08
2023-05-05T02:41:27.025Z,16.09
2023-05-05T02:43:55.225Z,16.05
2023-05-05T02:46:22.256Z,15.97
2023-05-05T02:48:49.124Z,15.83
2023-05-05T02:51:15.656Z,15.70
2023-05-05T02:53:42.503Z,15.59
2023-05-05T02:56:35.939Z,15.50
2023-05-05T02:59:14.518Z,15.40
2023-05-05T03:01:56.335Z,15.30
2023-05-05T03:04:29.304Z,15.14
2023-05-05T03:06:59.483Z,15.08
2023-05-05T03:09:37.603Z,15.03
2023-05-05T03:12:09.872Z,14.89
2023-05-05T03:14:46.999Z,14.89
2023-05-05T03:17:18.213Z,14.85
2023-05-05T03:19:46.856Z,14.73
2023-05-05T03:22:13.655Z,14.65
2023-05-05T03:24:50.274Z,14.64
2023-05-05T03:27:19.480Z,14.63
2023-05-05T03:29:46.131Z,14.61
2023-05-05T03:32:15.105Z,14.50
2023-05-05T03:34:42.366Z,14.45
2023-05-05T03:37:08.992Z,14.41
2023-05-05T03:39:37.098Z,14.28
2023-05-05T03:42:04.584Z,14.19
2023-05-05T03:44:34.403Z,14.13
2023-05-05T03:47:01.150Z,14.11
2023-05-05T03:49:29.966Z,14.07
2023-05-05T03:51:57.321Z,13.98
2023-05-05T03:54:24.067Z,13.92
2023-05-05T03:56:51.654Z,13.86
2023-05-05T03:59:18.284Z,13.83
2023-05-05T04:01:46.415Z,13.81
2023-05-05T04:04:13.152Z,13.77
2023-05-05T04:06:39.866Z,13.81
2023-05-05T04:09:06.987Z,13.70
2023-05-05T04:11:33.591Z,13.68
2023-05-05T04:14:00.907Z,13.60
2023-05-05T04:16:29.517Z,13.68
2023-05-05T04:18:57.728Z,13.63
2023-05-05T04:21:24.577Z,13.56
2023-05-05T04:23:51.213Z,13.57
2023-05-05T04:26:18.609Z,13.54
2023-05-05T04:28:46.264Z,13.53
2023-05-05T04:31:14.386Z,13.57
2023-05-05T04:33:42.880Z,13.56
2023-05-05T04:36:11.208Z,13.60
2023-05-05T04:38:37.854Z,13.57
2023-05-05T04:41:05.332Z,13.51
2023-05-05T04:43:32.483Z,13.57
2023-05-05T04:45:59.125Z,13.58
2023-05-05T04:48:30.384Z,13.59
2023-05-05T04:50:57.032Z,13.58
2023-05-05T04:53:25.170Z,13.68
2023-05-05T04:55:51.784Z,13.74
2023-05-05T04:58:18.662Z,13.86
2023-05-05T05:00:45.623Z,13.90
2023-05-05T05:03:12.390Z,13.97
2023-05-05T05:05:39.064Z,14.02
2023-05-05T05:08:06.242Z,14.08
2023-05-05T05:10:35.207Z,14.17
2023-05-05T05:13:02.149Z,14.23
2023-05-05T05:15:28.855Z,14.23
2023-05-05T05:17:55.820Z,14.27
2023-05-05T05:20:22.742Z,14.34
2023-05-05T05:22:49.640Z,14.38
2023-05-05T05:25:18.841Z,14.42
2023-05-05T05:27:58.514Z,14.43
2023-05-05T05:30:33.483Z,14.47
2023-05-05T05:33:00.907Z,14.47
2023-05-05T05:35:27.906Z,14.50
2023-05-05T05:37:54.628Z,14.60
2023-05-05T05:40:21.600Z,14.61
2023-05-05T05:42:49.559Z,14.69
2023-05-05T05:45:16.514Z,14.74
2023-05-05T05:47:44.094Z,14.78
2023-05-05T05:50:11.597Z,14.84
2023-05-05T05:52:38.501Z,14.87
2023-05-05T05:55:07.595Z,14.95
2023-05-05T05:57:34.628Z,14.97
2023-05-05T06:00:04.955Z,14.97
2023-05-05T06:02:38.489Z,14.98
2023-05-05T06:05:08.152Z,15.01
2023-05-05T06:07:35.289Z,15.10
2023-05-05T06:10:14.369Z,15.17
2023-05-05T06:12:46.341Z,15.19
2023-05-05T06:15:14.707Z,15.26
2023-05-05T06:17:41.356Z,15.33
2023-05-05T06:20:09.345Z,15.44
2023-05-05T06:22:36.090Z,15.46
2023-05-05T06:25:03.143Z,15.53
2023-05-05T06:27:30.022Z,15.57
2023-05-05T06:29:56.807Z,15.58
2023-05-05T06:32:24.945Z,15.68
2023-05-05T06:34:51.769Z,15.77
2023-05-05T06:37:18.551Z,15.89
2023-05-05T06:39:45.316Z,16.00
2023-05-05T06:42:11.997Z,16.10
2023-05-05T06:44:38.784Z,16.15
2023-05-05T06:47:05.802Z,16.24
2023-05-05T06:49:33.846Z,16.33
2023-05-05T06:52:00.494Z,16.40
2023-05-05T06:54:27.054Z,16.48
2023-05-05T06:56:53.679Z,16.53
2023-05-05T06:59:20.302Z,16.68
2023-05-05T07:01:47.042Z,16.78
2023-05-05T07:04:13.726Z,16.96
2023-05-05T07:06:41.723Z,17.10
2023-05-05T07:09:08.382Z,17.12
2023-05-05T07:11:34.953Z,17.17
2023-05-05T07:14:01.674Z,17.26
2023-05-05T07:16:28.315Z,17.33
2023-05-05T07:18:55.103Z,17.38
2023-05-05T07:21:21.705Z,17.47
2023-05-05T07:23:49.643Z,17.52
2023-05-05T07:26:16.303Z,17.58
2023-05-05T07:28:43.052Z,17.72
2023-05-05T07:31:09.995Z,17.71
2023-05-05T07:33:36.867Z,17.79
2023-05-05T07:36:04.025Z,17.81
2023-05-05T07:38:30.655Z,17.95
2023-05-05T07:40:58.667Z,18.01
2023-05-05T07:43:25.314Z,18.09
2023-05-05T07:45:51.925Z,18.18
2023-05-05T07:48:18.788Z,18.27
2023-05-05T07:50:45.476Z,18.28
2023-05-05T07:53:14.889Z,18.34
2023-05-05T07:55:41.937Z,18.37
2023-05-05T07:58:09.904Z,18.51
2023-05-05T08:00:36.534Z,18.65
2023-05-05T08:03:03.678Z,18.96
2023-05-05T08:05:30.525Z,19.24
2023-05-05T08:07:57.148Z,19.53
2023-05-05T08:10:23.853Z,19.88
2023-05-05T08:12:50.593Z,20.27
2023-05-05T08:15:18.678Z,20.80
2023-05-05T08:17:47.464Z,21.21
2023-05-05T08:20:14.439Z,21.23
2023-05-05T08:22:41.606Z,21.36
2023-05-05T08:25:08.688Z,21.52
2023-05-05T08:27:35.484Z,21.55
2023-05-05T08:30:03.108Z,21.64
2023-05-05T08:32:31.371Z,22.02
2023-05-05T08:34:58.170Z,22.04
2023-05-05T08:37:24.734Z,22.25
2023-05-05T08:39:51.528Z,22.18
2023-05-05T08:42:32.855Z,22.27
2023-05-05T08:45:03.924Z,23.26
2023-05-05T08:47:32.544Z,22.96
2023-05-05T08:49:59.453Z,23.03
2023-05-05T08:52:29.368Z,23.36
2023-05-05T08:55:01.323Z,25.09
2023-05-05T08:57:33.028Z,27.17
2023-05-05T09:00:00.656Z,27.66
2023-05-05T09:02:29.471Z,27.08
2023-05-05T09:04:58.038Z,27.52
2023-05-05T09:07:24.961Z,26.73
2023-05-05T09:09:51.675Z,26.03
2023-05-05T09:12:18.913Z,25.26
2023-05-05T09:14:46.180Z,24.51
2023-05-05T09:17:22.519Z,24.13
2023-05-05T09:20:02.154Z,24.00
2023-05-05T09:22:33.777Z,24.10
2023-05-05T09:25:00.415Z,24.40
2023-05-05T09:27:27.501Z,24.07
2023-05-05T09:29:54.641Z,23.80
2023-05-05T09:32:21.437Z,23.69
2023-05-05T09:34:57.411Z,23.68
2023-05-05T09:37:30.680Z,23.38
2023-05-05T09:39:59.708Z,23.26
2023-05-05T09:42:26.420Z,23.18
2023-05-05T09:44:53.253Z,23.10
2023-05-05T09:47:29.593Z,23.07
2023-05-05T09:49:57.790Z,22.91
2023-05-05T09:52:24.826Z,22.65
2023-05-05T09:54:55.356Z,22.58
2023-05-05T09:57:27.179Z,22.58
2023-05-05T09:59:57.222Z,23.09
2023-05-05T10:02:31.471Z,22.73
2023-05-05T10:05:09.371Z,22.58
2023-05-05T10:07:37.262Z,22.31
2023-05-05T10:10:09.021Z,22.27
2023-05-05T10:12:36.908Z,22.10
2023-05-05T10:15:04.440Z,21.95
2023-05-05T10:17:32.550Z,21.85
2023-05-05T10:20:01.378Z,21.80
2023-05-05T10:22:29.562Z,21.66
2023-05-05T10:25:01.711Z,21.59
2023-05-05T10:27:37.888Z,21.47
2023-05-05T10:30:06.408Z,21.19
2023-05-05T10:32:53.892Z,20.84
2023-05-05T10:35:24.818Z,20.57
2023-05-05T10:37:52.985Z,20.35
2023-05-05T10:40:22.448Z,20.05
2023-05-05T10:42:50.970Z,19.83
2023-05-05T10:45:17.999Z,19.59
2023-05-05T10:47:44.803Z,19.43
2023-05-05T10:50:19.919Z,19.26
2023-05-05T10:52:57.795Z,19.00
2023-05-05T10:55:46.213Z,18.78
2023-05-05T10:58:46.946Z,18.74
2023-05-05T11:01:30.788Z,18.72
2023-05-05T11:04:17.062Z,18.93
2023-05-05T11:07:16.964Z,19.12
2023-05-05T11:09:55.191Z,19.29
2023-05-05T11:12:21.853Z,19.41
2023-05-05T11:15:28.754Z,19.89
2023-05-05T11:17:56.554Z,20.07
2023-05-05T11:20:53.021Z,20.49
2023-05-05T11:23:22.784Z,20.83
2023-05-05T11:25:49.706Z,20.84
2023-05-05T11:28:18.573Z,21.02
2023-05-05T11:31:18.533Z,21.84
2023-05-05T11:33:45.233Z,22.17
2023-05-05T11:36:13.595Z,22.86
2023-05-05T11:38:59.915Z,23.78
2023-05-05T11:41:39.131Z,23.93
2023-05-05T11:44:10.180Z,23.88
2023-05-05T11:46:39.918Z,23.88
2023-05-05T11:49:07.333Z,24.37
2023-05-05T11:51:34.214Z,24.72
2023-05-05T11:54:00.867Z,25.31
2023-05-05T11:56:27.479Z,25.80
2023-05-05T11:59:08.867Z,26.02
2023-05-05T12:01:39.220Z,25.80
2023-05-05T12:04:08.299Z,26.43
2023-05-05T12:06:35.172Z,27.12
2023-05-05T12:09:02.499Z,27.49
2023-05-05T12:11:29.239Z,28.55
2023-05-05T12:14:09.066Z,28.52
2023-05-05T12:16:36.020Z,27.85
2023-05-05T12:19:08.370Z,27.45
2023-05-05T12:21:35.459Z,27.32
2023-05-05T12:24:02.215Z,26.66
2023-05-05T12:26:30.302Z,25.55
2023-05-05T12:28:57.682Z,24.64
2023-05-05T12:31:34.577Z,24.93
2023-05-05T12:34:01.711Z,24.57
2023-05-05T12:36:30.544Z,24.62
2023-05-05T12:38:57.367Z,25.10
2023-05-05T12:41:24.189Z,25.57
2023-05-05T12:43:54.792Z,26.13
2023-05-05T12:46:22.044Z,25.90
2023-05-05T12:49:00.895Z,25.59
2023-05-05T12:51:28.826Z,24.98
2023-05-05T12:54:03.731Z,24.37
2023-05-05T12:56:35.776Z,23.41
2023-05-05T12:59:03.689Z,22.69
2023-05-05T13:01:30.538Z,22.02
2023-05-05T13:04:08.209Z,21.40
2023-05-05T13:06:36.572Z,20.74
2023-05-05T13:09:03.681Z,20.33
2023-05-05T13:11:30.441Z,19.97
2023-05-05T13:13:57.035Z,19.68
2023-05-05T13:16:23.800Z,19.07
2023-05-05T13:18:50.870Z,18.01
2023-05-05T13:21:17.745Z,17.35
2023-05-05T13:23:46.014Z,16.98
2023-05-05T13:26:13.087Z,16.73
2023-05-05T13:28:39.945Z,16.73
2023-05-05T13:31:07.374Z,16.77
2023-05-05T13:33:34.904Z,16.59
2023-05-05T13:36:01.894Z,16.64
2023-05-05T13:38:28.590Z,16.72
2023-05-05T13:40:56.842Z,16.85
2023-05-05T13:43:23.587Z,17.10
2023-05-05T13:45:50.477Z,17.46
2023-05-05T13:48:17.241Z,18.17
2023-05-05T13:50:43.966Z,19.02
2023-05-05T13:53:10.741Z,19.89
2023-05-05T13:55:37.418Z,20.15
2023-05-05T13:58:05.383Z,20.03
2023-05-05T14:00:32.137Z,19.95
2023-05-05T14:02:58.873Z,19.64
2023-05-05T14:05:25.731Z,20.08
2023-05-05T14:07:52.570Z,20.15
2023-05-05T14:10:19.283Z,20.44
2023-05-05T14:12:46.014Z,20.50
2023-05-05T14:15:14.116Z,20.41
2023-05-05T14:17:40.773Z,20.20
2023-05-05T14:20:08.202Z,19.96
2023-05-05T14:22:34.759Z,19.78
2023-05-05T14:25:01.371Z,19.68
2023-05-05T14:27:28.262Z,19.85
2023-05-05T14:29:54.984Z,19.74
2023-05-05T14:32:23.041Z,19.58
2023-05-05T14:34:50.550Z,19.95
2023-05-05T14:37:17.339Z,19.77
2023-05-05T14:39:44.020Z,19.81
2023-05-05T14:42:10.750Z,20.01
2023-05-05T14:44:37.465Z,20.02
2023-05-05T14:47:04.275Z,20.12
2023-05-05T14:49:32.397Z,20.08
2023-05-05T14:51:59.110Z,19.82
2023-05-05T14:54:28.735Z,19.76
2023-05-05T14:56:56.227Z,19.80
2023-05-05T14:59:23.170Z,19.87
2023-05-05T15:01:49.962Z,19.89
2023-05-05T15:04:16.638Z,19.85
2023-05-05T15:06:44.796Z,19.61
2023-05-05T15:09:11.518Z,19.15
2023-05-05T15:11:38.230Z,18.86
2023-05-05T15:14:06.082Z,18.82
2023-05-05T15:16:35.014Z,18.72
2023-05-05T15:19:01.897Z,18.65
2023-05-05T15:21:28.644Z,18.49
2023-05-05T15:23:56.775Z,18.90
2023-05-05T15:27:03.768Z,18.96
2023-05-05T15:29:27.427Z,18.55
2023-05-05T15:31:54.632Z,18.25
2023-05-05T15:34:21.509Z,18.00
2023-05-05T15:36:48.199Z,17.79
2023-05-05T15:39:16.390Z,17.54
2023-05-05T15:41:43.234Z,17.41
2023-05-05T15:44:12.246Z,17.29
2023-05-05T15:46:39.240Z,17.25
2023-05-05T15:49:09.185Z,17.11
2023-05-05T15:51:36.242Z,16.99
2023-05-05T15:54:03.401Z,16.83
2023-05-05T15:56:32.447Z,16.83
2023-05-05T15:58:59.265Z,16.68
2023-05-05T16:01:27.369Z,16.70
2023-05-05T16:03:54.175Z,16.68
2023-05-05T16:06:20.981Z,16.64
2023-05-05T16:08:47.745Z,16.59
2023-05-05T16:11:14.544Z,16.53
2023-05-05T16:13:42.669Z,16.48
2023-05-05T16:16:09.521Z,16.32
2023-05-05T16:18:36.310Z,16.27
2023-05-05T16:21:04.937Z,16.16
2023-05-05T16:23:34.422Z,16.15
2023-05-05T16:26:01.159Z,16.11
2023-05-05T16:28:30.763Z,16.06
2023-05-05T16:30:58.890Z,16.04
2023-05-05T16:33:25.742Z,16.10
2023-05-05T16:35:53.711Z,16.02
2023-05-05T16:38:29.769Z,16.03
2023-05-05T16:40:58.176Z,16.02
2023-05-05T16:43:24.921Z,16.03
2023-05-05T16:45:51.694Z,16.09
2023-05-05T16:48:19.770Z,16.12
2023-05-05T16:50:46.420Z,16.19
2023-05-05T16:53:13.102Z,16.30
2023-05-05T16:55:39.880Z,16.30
2023-05-05T16:58:06.978Z,16.37
2023-05-05T17:00:33.639Z,16.38
2023-05-05T17:03:00.475Z,16.33
2023-05-05T17:05:28.621Z,16.29
2023-05-05T17:07:55.457Z,16.23
2023-05-05T17:10:22.482Z,16.24
2023-05-05T17:12:49.197Z,16.18
2023-05-05T17:15:15.976Z,16.18
2023-05-05T17:17:43.257Z,16.14
2023-05-05T17:20:11.272Z,16.04
2023-05-05T17:22:39.368Z,15.97
2023-05-05T17:25:07.115Z,15.94
2023-05-05T17:27:33.896Z,15.93
2023-05-05T17:30:00.526Z,15.96
2023-05-05T17:32:27.458Z,15.95
2023-05-05T17:34:54.365Z,15.95
2023-05-05T17:37:22.260Z,16.00
2023-05-05T17:39:50.508Z,15.94
2023-05-05T17:42:17.324Z,15.90
2023-05-05T17:44:47.687Z,15.78
2023-05-05T17:47:17.008Z,15.82
2023-05-05T17:49:43.726Z,15.73
2023-05-05T17:52:10.546Z,15.71
2023-05-05T17:54:37.250Z,15.67
2023-05-05T17:57:05.329Z,15.59
2023-05-05T17:59:32.121Z,15.51
2023-05-05T18:01:58.877Z,15.47
2023-05-05T18:04:27.832Z,15.48
2023-05-05T18:06:54.525Z,15.47
2023-05-05T18:09:21.076Z,15.47
2023-05-05T18:11:47.710Z,15.46
2023-05-05T18:14:15.691Z,15.41
2023-05-05T18:16:42.352Z,15.40
2023-05-05T18:19:08.940Z,15.33
2023-05-05T18:21:35.567Z,15.32
2023-05-05T18:24:15.893Z,15.27
2023-05-05T18:26:47.442Z,15.21
2023-05-05T18:29:15.647Z,15.20
2023-05-05T18:31:42.479Z,15.12
2023-05-05T18:34:09.342Z,15.02
2023-05-05T18:36:36.087Z,14.97
2023-05-05T18:39:03.151Z,14.89
2023-05-05T18:41:29.808Z,14.75
2023-05-05T18:43:56.509Z,14.69
2023-05-05T18:46:24.552Z,14.63
2023-05-05T18:48:51.099Z,14.52
2023-05-05T18:51:17.660Z,14.49
2023-05-05T18:53:44.292Z,14.39
2023-05-05T18:56:10.883Z,14.36
2023-05-05T18:58:37.620Z,14.22
2023-05-05T19:01:04.340Z,14.22
2023-05-05T19:03:34.259Z,14.17
2023-05-05T19:06:05.202Z,14.19
2023-05-05T19:08:31.800Z,13.99
2023-05-05T19:10:58.853Z,13.91
2023-05-05T19:13:25.485Z,13.97
2023-05-05T19:15:52.118Z,13.91
2023-05-05T19:18:18.693Z,13.89
2023-05-05T19:20:46.662Z,13.79
2023-05-05T19:23:13.201Z,13.78
2023-05-05T19:25:39.797Z,13.79
2023-05-05T19:28:06.398Z,13.82
2023-05-05T19:30:33.008Z,13.77
2023-05-05T19:32:59.764Z,13.75
2023-05-05T19:35:26.380Z,13.68
2023-05-05T19:37:55.391Z,13.64
2023-05-05T19:40:22.142Z,13.59
2023-05-05T19:42:48.897Z,13.56
2023-05-05T19:45:15.664Z,13.60
2023-05-05T19:47:42.214Z,13.65
2023-05-05T19:50:10.108Z,13.54
2023-05-05T19:52:37.004Z,13.51
2023-05-05T19:55:05.951Z,13.52
2023-05-05T19:57:32.538Z,13.52
2023-05-05T19:59:59.092Z,13.50
2023-05-05T20:02:25.777Z,13.40
2023-05-05T20:04:52.597Z,13.38
2023-05-05T20:07:19.300Z,13.39
2023-05-05T20:09:46.149Z,13.41
2023-05-05T20:12:14.102Z,13.40
2023-05-05T20:14:40.671Z,13.29
2023-05-05T20:17:07.191Z,13.29
2023-05-05T20:19:33.794Z,13.19
2023-05-05T20:22:00.410Z,13.15
2023-05-05T20:24:27.263Z,13.15
2023-05-05T20:26:54.017Z,13.14
2023-05-05T20:29:22.108Z,13.10
2023-05-05T20:31:48.754Z,13.03
2023-05-05T20:34:15.398Z,13.06
2023-05-05T20:36:42.002Z,13.02
2023-05-05T20:39:14.051Z,12.91
2023-05-05T20:41:40.595Z,12.92
2023-05-05T20:44:07.193Z,12.81
2023-05-05T20:46:35.290Z,12.81
2023-05-05T20:49:01.905Z,12.76
2023-05-05T20:51:28.496Z,12.72
2023-05-05T20:53:55.060Z,12.78
2023-05-05T20:56:21.751Z,12.76
2023-05-05T20:58:48.460Z,12.74
2023-05-05T21:01:15.093Z,12.75
2023-05-05T21:03:43.453Z,12.82
2023-05-05T21:06:10.109Z,12.75
2023-05-05T21:08:36.798Z,12.77
2023-05-05T21:11:08.624Z,12.86
2023-05-05T21:13:35.197Z,12.77
2023-05-05T21:16:01.878Z,12.85
2023-05-05T21:18:28.448Z,12.72
2023-05-05T21:20:56.416Z,12.74
2023-05-05T21:23:23.233Z,12.73
2023-05-05T21:25:49.966Z,12.65
2023-05-05T21:28:16.706Z,12.66
2023-05-05T21:30:43.685Z,12.66
2023-05-05T21:33:10.941Z,12.75
2023-05-05T21:35:37.557Z,12.73
2023-05-05T21:38:05.546Z,12.65
2023-05-05T21:40:32.090Z,12.64
2023-05-05T21:42:58.706Z,12.64
2023-05-05T21:45:25.329Z,12.59
2023-05-05T21:47:51.938Z,12.58
2023-05-05T21:50:18.603Z,12.49
2023-05-05T21:52:45.275Z,12.49
2023-05-05T21:55:13.171Z,12.49
2023-05-05T21:57:39.745Z,12.43
2023-05-05T22:00:07.975Z,12.40
2023-05-05T22:02:39.069Z,12.43
2023-05-05T22:05:06.857Z,12.44
2023-05-05T22:07:33.483Z,12.38
2023-05-05T22:10:00.233Z,12.41
2023-05-05T22:12:28.193Z,12.33
2023-05-05T22:14:54.850Z,12.38
2023-05-05T22:17:21.509Z,12.37
2023-05-05T22:19:48.110Z,12.46
2023-05-05T22:22:14.663Z,12.44
2023-05-05T22:24:41.251Z,12.43
2023-05-05T22:27:07.954Z,12.45
2023-05-05T22:29:35.896Z,12.52
2023-05-05T22:32:02.524Z,12.56
2023-05-05T22:34:29.117Z,12.48
2023-05-05T22:36:55.668Z,12.55
2023-05-05T22:39:22.251Z,12.53
2023-05-05T22:41:48.943Z,12.50
2023-05-05T22:44:15.562Z,12.59
2023-05-05T22:46:43.580Z,12.51
2023-05-05T22:49:10.241Z,12.52
2023-05-05T22:51:36.846Z,12.50
2023-05-05T22:54:03.640Z,12.49
2023-05-05T22:56:30.445Z,12.55
2023-05-05T22:58:57.046Z,12.50
2023-05-05T23:01:23.825Z,12.42
2023-05-05T23:03:51.860Z,12.40
2023-05-05T23:06:18.444Z,12.42
2023-05-05T23:08:45.662Z,12.40
2023-05-05T23:11:12.320Z,12.40
2023-05-05T23:13:38.936Z,12.36
2023-05-05T23:16:05.733Z,12.46
2023-05-05T23:18:32.378Z,12.37
2023-05-05T23:21:00.863Z,12.38
2023-05-05T23:23:27.606Z,12.36
2023-05-05T23:25:54.367Z,12.34
2023-05-05T23:28:20.932Z,12.32
2023-05-05T23:30:47.711Z,12.36
2023-05-05T23:33:14.346Z,12.29
2023-05-05T23:35:43.103Z,12.27
2023-05-05T23:38:11.048Z,12.29
2023-05-05T23:40:37.652Z,12.32
2023-05-05T23:43:04.243Z,12.22
2023-05-05T23:45:30.769Z,12.24
2023-05-05T23:47:57.332Z,12.23
2023-05-05T23:50:23.979Z,12.20
2023-05-05T23:52:50.574Z,12.13
2023-05-05T23:55:18.607Z,12.10
2023-05-05T23:57:45.179Z,12.05
